Time;durP1;ratioP1;P1;durP2;ratioP2;P2;SDS_P1;SDS_P2;PMS_P1;PMS_P2;Temp;Humidity;BMP_temperature;BMP_pressure;BME280_temperature;BME280_humidity;BME280_pressure;Samples;Min_cycle;Max_cycle;Signal;HPM_P1;HPM_P2
2022/08/10 00:01:03;;;;;;;3.83;2.17;;;15.70;99.90;;;;;;5043302;28;20218;-71
2022/08/10 00:03:30;;;;;;;5.32;2.30;;;15.50;99.90;;;;;;5052525;28;20823;-71
2022/08/10 00:05:57;;;;;;;5.40;2.38;;;15.50;99.90;;;;;;5036234;28;20214;-71
2022/08/10 00:08:25;;;;;;;4.07;2.88;;;15.50;99.90;;;;;;5034028;28;20203;-71
2022/08/10 00:10:52;;;;;;;6.65;3.40;;;15.80;99.90;;;;;;5052899;28;20202;-70
2022/08/10 00:13:20;;;;;;;7.72;4.57;;;15.90;99.90;;;;;;5052948;28;20561;-70
2022/08/10 00:15:47;;;;;;;7.13;3.92;;;16.00;99.90;;;;;;5052385;28;20206;-70
2022/08/10 00:18:14;;;;;;;6.18;3.17;;;15.90;99.90;;;;;;5052329;28;20206;-71
2022/08/10 00:20:41;;;;;;;5.07;2.85;;;15.60;99.90;;;;;;5038121;28;20231;-70
2022/08/10 00:23:08;;;;;;;6.43;3.00;;;15.50;99.90;;;;;;5052561;28;20568;-70
2022/08/10 00:25:36;;;;;;;4.57;2.83;;;15.40;99.90;;;;;;5052965;28;20199;-70
2022/08/10 00:28:03;;;;;;;3.33;2.90;;;15.30;99.90;;;;;;5052457;28;20210;-70
2022/08/10 00:30:30;;;;;;;5.00;2.90;;;15.40;99.90;;;;;;5052362;28;20199;-70
2022/08/10 00:32:57;;;;;;;2.58;2.30;;;15.50;99.90;;;;;;5052623;28;20203;-70
2022/08/10 00:35:24;;;;;;;6.10;2.92;;;15.40;99.90;;;;;;5049403;28;20676;-70
2022/08/10 00:37:51;;;;;;;2.88;2.60;;;15.20;99.90;;;;;;5043097;28;20206;-70
2022/08/10 00:40:18;;;;;;;5.55;2.97;;;15.10;99.90;;;;;;5052027;28;20205;-70
2022/08/10 00:42:46;;;;;;;5.60;2.88;;;15.20;99.90;;;;;;5052482;28;20202;-70
2022/08/10 00:45:13;;;;;;;5.93;3.05;;;15.40;99.90;;;;;;5052255;28;20203;-71
2022/08/10 00:47:40;;;;;;;4.28;2.58;;;15.50;99.90;;;;;;5052626;28;20198;-70
2022/08/10 00:50:09;;;;;;;4.18;2.72;;;15.50;99.90;;;;;;5052068;28;20201;-70
2022/08/10 00:52:36;;;;;;;3.13;2.40;;;15.50;99.90;;;;;;5052205;28;20210;-70
2022/08/10 00:55:05;;;;;;;5.43;2.80;;;14.80;99.90;;;;;;5052565;28;20533;-70
2022/08/10 00:57:32;;;;;;;3.63;2.50;;;14.40;99.90;;;;;;5052174;28;20214;-70
2022/08/10 01:00:00;;;;;;;3.60;2.45;;;14.60;99.90;;;;;;5051753;28;20219;-70
2022/08/10 01:02:30;;;;;;;4.37;3.10;;;14.90;99.90;;;;;;5051710;28;20226;-70
2022/08/10 01:04:58;;;;;;;6.97;4.03;;;15.20;99.90;;;;;;5050920;28;20199;-70
2022/08/10 01:07:38;;;;;;;8.27;4.97;;;15.30;99.90;;;;;;5052090;28;20266;-70
2022/08/10 01:10:15;;;;;;;10.77;5.00;;;15.40;99.90;;;;;;5051973;28;20202;-70
2022/08/10 01:12:53;;;;;;;16.20;6.93;;;15.40;99.90;;;;;;5050912;28;20199;-70
2022/08/10 01:15:28;;;;;;;7.47;4.40;;;15.50;99.90;;;;;;5055669;28;20661;-70
2022/08/10 01:18:02;;;;;;;5.57;3.33;;;15.20;99.90;;;;;;5055778;28;20197;-70
2022/08/10 01:20:38;;;;;;;7.40;4.50;;;15.00;99.90;;;;;;5054920;28;20241;-70
2022/08/10 01:23:38;;;;;;;10.75;5.78;;;14.60;99.90;;;;;;5055898;28;20641;-70
2022/08/10 01:26:29;;;;;;;7.78;4.72;;;14.60;99.90;;;;;;5054305;28;20202;-70
2022/08/10 01:29:13;;;;;;;8.07;3.97;;;14.60;99.90;;;;;;5054439;28;20206;-70
2022/08/10 01:31:44;;;;;;;16.33;6.77;;;14.80;99.90;;;;;;5034757;28;20203;-70
2022/08/10 01:34:14;;;;;;;9.77;5.93;;;15.00;99.90;;;;;;5052445;28;20199;-70
2022/08/10 01:36:46;;;;;;;10.30;5.15;;;15.10;99.90;;;;;;5052632;28;20211;-70
2022/08/10 01:39:19;;;;;;;9.10;4.27;;;15.20;99.90;;;;;;5053984;28;20222;-70
2022/08/10 01:41:49;;;;;;;8.57;4.27;;;15.20;99.90;;;;;;5055365;28;20242;-70
2022/08/10 01:44:23;;;;;;;5.87;3.00;;;15.20;99.90;;;;;;5055302;28;20218;-70
2022/08/10 01:48:27;;;;;;;4.40;2.87;;;14.90;99.90;;;;;;5055497;28;20202;-70
2022/08/10 01:49:45;;;;;;;6.80;2.97;;;14.70;99.90;;;;;;5055131;28;20713;-71
2022/08/10 01:52:16;;;;;;;3.27;2.70;;;14.30;99.90;;;;;;5055169;28;20195;-70
2022/08/10 01:54:44;;;;;;;4.27;2.83;;;14.10;99.90;;;;;;5055338;28;20222;-70
2022/08/10 01:57:13;;;;;;;5.85;3.40;;;13.90;99.90;;;;;;5055158;28;20646;-70
2022/08/10 01:59:43;;;;;;;4.50;2.97;;;13.90;99.90;;;;;;5042087;28;20222;-70
2022/08/10 02:02:14;;;;;;;3.90;3.33;;;13.90;99.90;;;;;;5054974;28;20684;-70
2022/08/10 02:04:45;;;;;;;3.00;2.70;;;14.00;99.90;;;;;;5051519;28;20692;-70
2022/08/10 02:07:16;;;;;;;3.67;3.13;;;14.20;99.90;;;;;;5055368;28;20211;-70
2022/08/10 02:09:47;;;;;;;5.50;2.87;;;14.20;99.90;;;;;;5041366;28;20223;-71
2022/08/10 02:12:22;;;;;;;4.60;3.30;;;14.40;99.90;;;;;;5054920;28;20199;-70
2022/08/10 02:14:53;;;;;;;3.93;3.10;;;14.60;99.90;;;;;;5046313;28;20217;-70
2022/08/10 02:17:25;;;;;;;3.13;2.67;;;14.60;99.90;;;;;;5053209;28;20210;-70
2022/08/10 02:19:54;;;;;;;6.40;3.23;;;14.50;99.90;;;;;;5044947;28;20208;-70
2022/08/10 02:22:22;;;;;;;6.50;3.20;;;14.40;99.90;;;;;;5054315;28;20221;-70
2022/08/10 02:24:50;;;;;;;3.87;3.17;;;14.30;99.90;;;;;;5038378;28;20287;-70
2022/08/10 02:27:20;;;;;;;6.47;3.05;;;14.10;99.90;;;;;;5053824;28;20195;-70
2022/08/10 02:29:48;;;;;;;5.50;2.90;;;13.90;99.90;;;;;;5054599;28;20547;-71
2022/08/10 02:32:17;;;;;;;3.63;3.10;;;13.70;99.90;;;;;;5054878;28;20222;-70
2022/08/10 02:34:46;;;;;;;10.60;3.27;;;13.70;99.90;;;;;;5054938;28;20614;-70
2022/08/10 02:37:14;;;;;;;3.60;2.83;;;13.60;99.90;;;;;;5053990;28;20683;-70
2022/08/10 02:39:41;;;;;;;4.60;3.40;;;13.60;99.90;;;;;;5054304;28;20234;-70
2022/08/10 02:42:13;;;;;;;5.63;3.70;;;13.60;99.90;;;;;;5054154;28;20227;-70
2022/08/10 02:44:47;;;;;;;7.20;4.27;;;13.70;99.90;;;;;;5054396;28;20654;-71
2022/08/10 02:47:21;;;;;;;9.53;5.03;;;13.90;99.90;;;;;;5036151;28;20208;-70
2022/08/10 02:49:53;;;;;;;11.80;5.63;;;14.00;99.90;;;;;;5054339;28;20207;-70
2022/08/10 02:52:25;;;;;;;8.70;4.97;;;14.00;99.90;;;;;;5047197;28;20192;-70
2022/08/10 02:54:55;;;;;;;7.53;4.50;;;14.20;99.90;;;;;;5054464;28;20207;-70
2022/08/10 02:57:27;;;;;;;5.70;4.00;;;14.30;99.90;;;;;;5054367;28;20210;-70
2022/08/10 02:59:57;;;;;;;6.57;4.20;;;14.30;99.90;;;;;;5053925;28;20221;-70
2022/08/10 03:02:30;;;;;;;7.13;3.80;;;14.30;99.90;;;;;;5053845;28;20227;-70
2022/08/10 03:05:02;;;;;;;5.43;3.80;;;14.20;99.90;;;;;;5052527;28;20209;-70
2022/08/10 03:07:33;;;;;;;5.93;3.80;;;14.20;99.90;;;;;;5051151;28;20211;-70
2022/08/10 03:10:02;;;;;;;4.80;3.60;;;14.20;99.90;;;;;;5050518;28;20618;-70
2022/08/10 03:12:30;;;;;;;4.20;3.70;;;14.30;99.90;;;;;;5053513;28;20544;-70
2022/08/10 03:14:58;;;;;;;5.77;3.63;;;14.30;99.90;;;;;;5053534;28;20207;-70
2022/08/10 03:17:26;;;;;;;7.13;3.97;;;14.30;99.90;;;;;;5053668;28;20199;-70
2022/08/10 03:19:56;;;;;;;8.57;3.90;;;14.10;99.90;;;;;;5053681;28;20199;-70
2022/08/10 03:22:25;;;;;;;6.77;4.10;;;14.10;99.90;;;;;;5053768;28;20669;-71
2022/08/10 03:24:53;;;;;;;4.60;3.60;;;14.10;99.90;;;;;;5033866;28;20207;-70
2022/08/10 03:27:22;;;;;;;8.20;4.20;;;14.00;99.90;;;;;;5034151;28;20222;-71
2022/08/10 03:29:51;;;;;;;8.97;3.93;;;13.90;99.90;;;;;;5033331;28;20283;-71
2022/08/10 03:32:19;;;;;;;5.53;3.60;;;13.80;99.90;;;;;;5033480;28;20196;-69
2022/08/10 03:34:47;;;;;;;3.57;3.27;;;13.80;99.90;;;;;;5040098;28;20203;-69
2022/08/10 03:37:14;;;;;;;6.93;3.57;;;14.00;99.90;;;;;;5052754;28;20677;-69
2022/08/10 03:39:42;;;;;;;15.97;3.50;;;14.00;99.90;;;;;;5053083;28;20214;-69
2022/08/10 03:42:12;;;;;;;6.27;4.00;;;14.00;99.90;;;;;;5053350;28;20218;-69
2022/08/10 03:44:41;;;;;;;7.13;3.57;;;14.10;99.90;;;;;;5053304;28;20237;-69
2022/08/10 03:47:09;;;;;;;5.13;3.30;;;14.00;99.90;;;;;;5053500;28;20207;-69
2022/08/10 03:49:38;;;;;;;4.53;3.20;;;13.70;99.90;;;;;;5053266;28;20215;-69
2022/08/10 03:52:06;;;;;;;7.47;4.03;;;13.70;99.90;;;;;;5053203;28;20653;-69
2022/08/10 03:54:34;;;;;;;6.03;3.97;;;13.50;99.90;;;;;;5053455;28;20203;-69
2022/08/10 03:57:02;;;;;;;7.00;4.00;;;13.70;99.90;;;;;;5052740;28;20203;-69
2022/08/10 03:59:30;;;;;;;5.27;3.60;;;13.60;99.90;;;;;;5053145;28;20680;-69
2022/08/10 04:01:57;;;;;;;7.33;4.00;;;13.70;99.90;;;;;;5052851;28;20261;-69
2022/08/10 04:04:24;;;;;;;5.27;3.60;;;13.90;99.90;;;;;;5049673;28;20626;-69
2022/08/10 04:06:52;;;;;;;5.37;4.00;;;13.70;99.90;;;;;;5052806;28;20210;-69
2022/08/10 04:09:19;;;;;;;6.97;3.40;;;13.80;99.90;;;;;;5053102;28;20619;-69
2022/08/10 04:11:46;;;;;;;8.27;3.33;;;13.70;99.90;;;;;;5048216;28;20223;-69
2022/08/10 04:14:14;;;;;;;6.03;3.97;;;13.50;99.90;;;;;;5033211;28;20366;-69
2022/08/10 04:16:41;;;;;;;5.60;3.83;;;13.40;99.90;;;;;;5036464;28;20288;-69
2022/08/10 04:19:08;;;;;;;5.70;3.47;;;13.90;99.90;;;;;;5051852;28;20207;-69
2022/08/10 04:21:41;;;;;;;7.43;5.10;;;14.40;99.90;;;;;;5032641;28;20263;-69
2022/08/10 04:24:12;;;;;;;11.37;3.37;;;14.40;99.90;;;;;;5032801;28;20662;-69
2022/08/10 04:26:40;;;;;;;6.23;3.50;;;14.20;99.90;;;;;;5033170;28;20199;-69
2022/08/10 04:29:07;;;;;;;5.30;3.47;;;14.30;99.90;;;;;;5032995;28;20200;-69
2022/08/10 04:31:36;;;;;;;5.47;4.00;;;14.40;99.90;;;;;;5032885;28;20207;-69
2022/08/10 04:34:04;;;;;;;18.63;5.17;;;14.40;99.90;;;;;;5032877;28;20207;-69
2022/08/10 04:36:32;;;;;;;7.07;3.50;;;14.30;99.90;;;;;;5032683;28;20559;-69
2022/08/10 04:39:00;;;;;;;4.30;3.35;;;14.40;99.90;;;;;;5032813;28;20214;-69
2022/08/10 04:41:27;;;;;;;6.80;3.27;;;14.60;99.90;;;;;;5032757;28;20563;-69
2022/08/10 04:43:54;;;;;;;7.15;3.58;;;14.80;99.90;;;;;;5032812;28;20562;-69
2022/08/10 04:46:21;;;;;;;6.40;3.30;;;14.60;99.90;;;;;;5032790;28;20210;-69
2022/08/10 04:48:49;;;;;;;3.63;3.00;;;14.50;99.90;;;;;;5033461;28;20662;-69
2022/08/10 04:51:17;;;;;;;4.07;3.40;;;14.90;99.90;;;;;;5036549;28;20587;-69
2022/08/10 04:53:44;;;;;;;4.63;3.47;;;15.10;99.90;;;;;;5036881;28;20752;-69
2022/08/10 04:56:11;;;;;;;4.97;3.73;;;15.00;99.90;;;;;;5036993;28;20294;-69
2022/08/10 04:58:38;;;;;;;6.17;3.50;;;14.80;99.90;;;;;;5036774;28;20208;-69
2022/08/10 05:01:05;;;;;;;7.03;4.13;;;14.80;99.90;;;;;;5036129;28;20215;-69
2022/08/10 05:03:31;;;;;;;6.17;4.17;;;14.80;99.90;;;;;;5036459;28;20239;-69
2022/08/10 05:06:00;;;;;;;9.35;4.20;;;14.90;99.90;;;;;;5036722;28;20207;-69
2022/08/10 05:08:27;;;;;;;6.50;4.30;;;14.90;99.90;;;;;;5036576;28;20714;-69
2022/08/10 05:10:53;;;;;;;5.77;3.60;;;14.90;99.90;;;;;;5036173;28;20204;-69
2022/08/10 05:13:20;;;;;;;4.28;3.88;;;15.60;99.90;;;;;;5036467;28;20220;-69
2022/08/10 05:15:49;;;;;;;5.25;3.85;;;16.30;99.90;;;;;;5036198;28;20199;-69
2022/08/10 05:18:15;;;;;;;4.77;3.83;;;16.00;99.90;;;;;;5036193;28;20203;-69
2022/08/10 05:20:42;;;;;;;6.35;3.97;;;15.60;99.90;;;;;;5036026;28;20218;-69
2022/08/10 05:23:11;;;;;;;5.53;3.75;;;15.50;99.90;;;;;;5048351;28;20222;-69
2022/08/10 05:25:37;;;;;;;4.15;3.65;;;15.80;99.90;;;;;;5055926;28;20202;-69
2022/08/10 05:28:05;;;;;;;6.88;3.60;;;15.80;99.90;;;;;;5056047;28;20217;-69
2022/08/10 05:30:31;;;;;;;5.68;3.63;;;15.80;99.90;;;;;;5055622;28;20552;-69
2022/08/10 05:32:58;;;;;;;5.68;3.90;;;15.60;99.90;;;;;;5055822;28;20205;-69
2022/08/10 05:35:26;;;;;;;5.65;4.13;;;15.80;99.90;;;;;;5052397;28;20199;-69
2022/08/10 05:37:55;;;;;;;7.07;4.20;;;16.00;99.90;;;;;;5043769;28;20207;-69
2022/08/10 05:40:24;;;;;;;4.75;3.97;;;16.60;99.90;;;;;;5035529;28;20211;-69
2022/08/10 05:42:51;;;;;;;7.45;4.30;;;16.40;99.90;;;;;;5035424;28;20670;-69
2022/08/10 05:45:21;;;;;;;5.55;4.03;;;16.80;99.90;;;;;;5035592;28;20574;-69
2022/08/10 05:47:48;;;;;;;8.20;4.72;;;16.60;99.90;;;;;;5035639;28;20250;-69
2022/08/10 05:50:17;;;;;;;6.47;4.78;;;16.40;99.90;;;;;;5035710;28;20215;-69
2022/08/10 05:52:43;;;;;;;9.75;4.57;;;16.40;99.90;;;;;;5035517;28;20200;-69
2022/08/10 05:55:10;;;;;;;12.75;5.18;;;16.50;99.90;;;;;;5035761;28;20208;-69
2022/08/10 05:57:39;;;;;;;12.73;5.57;;;16.50;99.90;;;;;;5035571;28;20215;-69
2022/08/10 06:00:10;;;;;;;13.70;5.20;;;16.70;99.90;;;;;;5035032;28;20306;-69
2022/08/10 06:02:40;;;;;;;11.45;5.32;;;16.60;99.90;;;;;;5035429;28;20223;-70
2022/08/10 06:05:09;;;;;;;13.13;5.28;;;16.80;99.90;;;;;;5035576;28;20215;-69
2022/08/10 06:07:40;;;;;;;8.20;4.93;;;16.90;99.90;;;;;;5035247;28;20207;-69
2022/08/10 06:10:11;;;;;;;7.22;4.97;;;17.00;99.90;;;;;;5035044;28;20204;-69
2022/08/10 06:12:40;;;;;;;8.07;4.72;;;16.90;99.90;;;;;;5035455;28;20673;-69
2022/08/10 06:15:08;;;;;;;9.55;5.07;;;16.90;99.90;;;;;;5035317;28;20207;-69
2022/08/10 06:17:36;;;;;;;7.95;5.18;;;16.90;99.90;;;;;;5035575;28;20543;-69
2022/08/10 06:20:03;;;;;;;9.35;5.95;;;17.20;99.90;;;;;;5034978;28;20223;-69
2022/08/10 06:22:31;;;;;;;10.35;5.20;;;17.20;99.90;;;;;;5034948;28;20309;-69
2022/08/10 06:25:01;;;;;;;7.30;4.43;;;17.40;99.90;;;;;;5034917;28;20238;-69
2022/08/10 06:27:28;;;;;;;9.00;4.40;;;17.60;99.90;;;;;;5035259;28;20642;-69
2022/08/10 06:29:59;;;;;;;8.15;4.07;;;17.80;99.90;;;;;;5034749;28;20227;-69
2022/08/10 06:32:28;;;;;;;8.75;3.60;;;17.70;99.90;;;;;;5035036;28;20539;-69
2022/08/10 06:34:58;;;;;;;6.40;4.18;;;17.80;99.90;;;;;;5042154;28;20664;-69
2022/08/10 06:37:29;;;;;;;6.00;3.60;;;17.90;99.90;;;;;;5054559;28;20278;-69
2022/08/10 06:39:56;;;;;;;7.85;3.70;;;17.90;99.90;;;;;;5054619;28;20268;-69
2022/08/10 06:42:28;;;;;;;6.85;4.25;;;17.80;99.90;;;;;;5054777;28;20540;-69
2022/08/10 06:45:00;;;;;;;4.93;3.65;;;17.90;99.90;;;;;;5054294;28;20215;-69
2022/08/10 06:47:32;;;;;;;6.65;3.85;;;17.90;99.90;;;;;;5054282;28;20210;-76
2022/08/10 06:50:05;;;;;;;5.35;3.80;;;18.10;99.90;;;;;;5050782;28;20622;-76
2022/08/10 06:52:33;;;;;;;7.05;3.53;;;18.30;99.90;;;;;;5044902;28;20716;-76
2022/08/10 06:55:02;;;;;;;6.32;3.35;;;18.40;99.90;;;;;;5034525;28;20663;-76
2022/08/10 06:57:32;;;;;;;4.60;3.45;;;18.60;99.90;;;;;;5034323;28;20204;-76
2022/08/10 07:00:03;;;;;;;4.05;3.30;;;18.70;99.90;;;;;;5034179;28;20261;-76
2022/08/10 07:02:39;;;;;;;7.72;3.83;;;18.80;99.90;;;;;;5034156;28;20227;-76
2022/08/10 07:05:08;;;;;;;5.78;3.60;;;18.90;99.90;;;;;;5034457;28;20537;-76
2022/08/10 07:07:39;;;;;;;4.43;3.20;;;18.90;99.90;;;;;;5033816;28;20208;-76
2022/08/10 07:10:09;;;;;;;5.43;3.40;;;19.00;99.90;;;;;;5034010;28;20218;-76
2022/08/10 07:12:37;;;;;;;5.65;3.30;;;18.90;99.90;;;;;;5033468;28;20215;-76
2022/08/10 07:15:08;;;;;;;4.28;3.17;;;19.00;99.90;;;;;;5034635;28;20633;-76
2022/08/10 07:17:37;;;;;;;5.35;3.63;;;19.20;99.90;;;;;;5034149;28;20720;-76
2022/08/10 07:20:07;;;;;;;8.35;3.30;;;19.40;99.90;;;;;;5033956;28;20214;-76
2022/08/10 07:22:36;;;;;;;5.50;3.45;;;19.50;99.90;;;;;;5033864;28;20322;-76
2022/08/10 07:25:06;;;;;;;6.88;3.25;;;19.40;99.90;;;;;;5033783;28;20211;-75
2022/08/10 07:27:34;;;;;;;5.95;3.40;;;19.50;96.80;;;;;;5033992;28;20646;-76
2022/08/10 07:30:01;;;;;;;5.20;3.42;;;19.60;99.80;;;;;;5033608;28;20204;-76
2022/08/10 07:32:32;;;;;;;4.60;3.33;;;19.60;90.20;;;;;;5033891;28;20203;-76
2022/08/10 07:34:59;;;;;;;7.20;3.90;;;19.80;94.20;;;;;;5033960;28;20593;-76
2022/08/10 07:37:30;;;;;;;7.97;3.55;;;19.90;93.40;;;;;;5033784;28;20669;-76
2022/08/10 07:39:57;;;;;;;4.07;3.08;;;19.90;95.00;;;;;;5033420;28;20211;-76
2022/08/10 07:42:27;;;;;;;7.75;3.42;;;19.90;94.00;;;;;;5033735;28;20563;-76
2022/08/10 07:44:54;;;;;;;5.95;3.25;;;20.00;90.00;;;;;;5033535;28;20207;-76
2022/08/10 07:47:28;;;;;;;7.68;3.70;;;20.10;92.70;;;;;;5033508;28;20655;-76
2022/08/10 07:50:00;;;;;;;3.58;3.13;;;20.30;88.30;;;;;;5036541;28;20587;-76
2022/08/10 07:52:28;;;;;;;9.50;3.20;;;20.30;84.20;;;;;;5052951;28;20610;-76
2022/08/10 07:54:56;;;;;;;3.42;3.08;;;20.20;83.90;;;;;;5050385;28;20242;-75
2022/08/10 07:57:27;;;;;;;5.72;3.70;;;20.30;88.30;;;;;;5036781;28;20519;-76
2022/08/10 07:59:56;;;;;;;4.90;3.45;;;20.30;80.00;;;;;;5033165;28;20581;-76
2022/08/10 08:02:28;;;;;;;5.88;3.58;;;20.40;86.20;;;;;;5033218;28;20653;-76
2022/08/10 08:05:00;;;;;;;6.07;3.97;;;20.50;72.00;;;;;;5033151;28;20200;-76
2022/08/10 08:07:28;;;;;;;4.93;3.25;;;20.40;81.70;;;;;;5033311;28;20214;-75
2022/08/10 08:09:56;;;;;;;6.65;3.53;;;20.50;82.30;;;;;;5032972;28;20565;-76
2022/08/10 08:12:24;;;;;;;7.20;4.10;;;20.80;84.70;;;;;;5032979;28;20207;-76
2022/08/10 08:14:53;;;;;;;8.80;3.78;;;20.80;74.30;;;;;;5033313;28;20552;-75
2022/08/10 08:17:25;;;;;;;6.60;3.17;;;20.80;72.20;;;;;;5032937;28;20210;-76
2022/08/10 08:19:54;;;;;;;7.72;3.55;;;21.10;74.90;;;;;;5033012;28;20705;-76
2022/08/10 08:22:23;;;;;;;7.68;3.92;;;21.10;73.90;;;;;;5032967;28;20661;-76
2022/08/10 08:24:50;;;;;;;6.05;3.95;;;21.20;73.00;;;;;;5031991;28;20219;-76
2022/08/10 08:27:19;;;;;;;5.03;3.60;;;21.30;73.30;;;;;;5033210;28;20215;-75
2022/08/10 08:29:48;;;;;;;6.13;3.40;;;21.50;60.80;;;;;;5032755;28;20210;-76
2022/08/10 08:32:21;;;;;;;10.40;4.25;;;21.40;57.50;;;;;;5032708;28;20211;-76
2022/08/10 08:34:52;;;;;;;6.20;3.30;;;21.70;70.30;;;;;;5033329;28;20204;-76
2022/08/10 08:37:20;;;;;;;5.88;3.47;;;21.60;58.00;;;;;;5032962;28;20603;-75
2022/08/10 08:39:49;;;;;;;9.48;3.70;;;21.60;62.90;;;;;;5032855;28;20207;-75
2022/08/10 08:42:35;;;;;;;5.45;3.15;;;21.80;58.60;;;;;;5032794;28;20216;-76
2022/08/10 08:45:11;;;;;;;6.07;3.00;;;21.70;56.10;;;;;;5032980;28;20223;-76
2022/08/10 08:48:18;;;;;;;6.93;3.53;;;22.10;59.90;;;;;;5031260;28;20203;-75
2022/08/10 08:50:57;;;;;;;5.40;3.35;;;22.30;59.40;;;;;;5029030;28;20203;-75
2022/08/10 08:53:47;;;;;;;5.70;3.15;;;22.20;47.50;;;;;;5031350;28;20203;-75
2022/08/10 08:56:23;;;;;;;4.40;3.75;;;22.60;53.00;;;;;;5032664;28;20204;-75
2022/08/10 08:59:19;;;;;;;4.25;3.42;;;22.70;43.90;;;;;;5031367;28;20213;-76
2022/08/10 09:02:00;;;;;;;6.55;3.40;;;22.90;40.20;;;;;;5029047;28;20213;-75
2022/08/10 09:04:45;;;;;;;5.22;3.30;;;22.80;43.80;;;;;;5032684;28;20242;-75
2022/08/10 09:07:34;;;;;;;5.68;3.30;;;23.20;37.90;;;;;;5050990;28;20201;-75
2022/08/10 09:10:10;;;;;;;5.28;3.40;;;23.40;33.90;;;;;;5032378;28;20689;-75
2022/08/10 09:12:49;;;;;;;3.65;2.70;;;23.70;29.50;;;;;;5031147;28;20207;-75
2022/08/10 09:15:23;;;;;;;5.75;3.53;;;24.20;30.00;;;;;;5032691;28;20207;-75
2022/08/10 09:17:58;;;;;;;8.00;3.30;;;24.50;26.20;;;;;;5032375;28;20202;-75
2022/08/10 09:20:36;;;;;;;5.07;3.28;;;24.90;25.50;;;;;;5040433;28;20206;-75
2022/08/10 09:23:11;;;;;;;5.07;3.20;;;25.30;20.60;;;;;;5038419;28;20199;-74
2022/08/10 09:25:44;;;;;;;3.90;2.90;;;26.10;16.50;;;;;;5031027;28;20213;-74
2022/08/10 09:28:22;;;;;;;3.47;2.72;;;26.50;13.70;;;;;;5032588;28;20200;-75
2022/08/10 09:30:56;;;;;;;3.15;2.85;;;25.70;14.90;;;;;;5032178;28;20204;-75
2022/08/10 09:33:35;;;;;;;3.88;2.80;;;25.80;10.30;;;;;;5032359;28;20672;-74
2022/08/10 09:36:11;;;;;;;7.28;3.00;;;26.00;11.70;;;;;;5033487;28;20203;-75
2022/08/10 09:38:48;;;;;;;4.90;2.47;;;26.10;9.40;;;;;;5035699;28;20210;-75
2022/08/10 09:41:25;;;;;;;3.35;2.50;;;26.20;8.90;;;;;;5036003;28;20187;-74
2022/08/10 09:44:05;;;;;;;3.45;2.50;;;26.30;5.40;;;;;;5035839;28;20227;-75
2022/08/10 09:46:42;;;;;;;2.42;2.22;;;26.20;3.70;;;;;;5034513;28;20225;-75
2022/08/10 09:49:19;;;;;;;6.00;2.60;;;26.20;3.10;;;;;;5035575;28;20265;-74
2022/08/10 09:51:59;;;;;;;3.55;2.25;;;26.50;2.40;;;;;;5034333;28;20208;-75
2022/08/10 09:54:39;;;;;;;4.03;2.67;;;26.50;1.00;;;;;;5034449;28;20199;-75
2022/08/10 09:57:16;;;;;;;4.20;3.20;;;26.70;4.30;;;;;;5035780;28;20203;-74
2022/08/10 09:59:56;;;;;;;6.05;2.75;;;26.60;4.30;;;;;;5035510;28;20575;-74
2022/08/10 10:02:32;;;;;;;6.18;2.60;;;26.70;5.90;;;;;;5035068;28;20211;-70
2022/08/10 10:05:08;;;;;;;5.43;2.97;;;26.70;4.50;;;;;;5032948;28;20223;-67
2022/08/10 10:07:42;;;;;;;7.93;3.08;;;27.00;3.60;;;;;;5033330;28;20205;-74
2022/08/10 10:10:13;;;;;;;3.90;2.90;;;26.90;1.00;;;;;;5033046;28;20298;-75
2022/08/10 10:12:49;;;;;;;5.22;2.83;;;26.60;1.60;;;;;;5034864;28;20249;-74
2022/08/10 10:15:26;;;;;;;3.58;2.67;;;26.90;1.00;;;;;;5035061;28;20808;-67
2022/08/10 10:18:16;;;;;;;3.15;2.42;;;26.80;1.00;;;;;;5033583;28;20622;-67
2022/08/10 10:20:54;;;;;;;8.10;2.40;;;26.90;1.00;;;;;;5034196;28;20200;-74
2022/08/10 10:23:42;;;;;;;3.42;2.20;;;26.80;1.00;;;;;;5033096;28;20242;-74
2022/08/10 10:26:18;;;;;;;5.18;2.50;;;27.20;1.00;;;;;;5032837;28;20290;-67
2022/08/10 10:28:55;;;;;;;4.43;2.60;;;27.60;1.00;;;;;;5033010;28;20207;-67
2022/08/10 10:31:31;;;;;;;11.18;2.50;;;26.80;1.00;;;;;;5032620;28;20261;-67
2022/08/10 10:34:09;;;;;;;2.55;2.10;;;26.60;1.00;;;;;;5033491;28;20207;-67
2022/08/10 10:36:39;;;;;;;2.75;2.22;;;26.80;1.00;;;;;;5050344;28;20646;-70
2022/08/10 10:39:08;;;;;;;3.08;2.15;;;27.10;1.00;;;;;;5053359;28;20199;-70
2022/08/10 10:41:47;;;;;;;2.60;2.20;;;26.90;1.00;;;;;;5050977;28;20222;-70
2022/08/10 10:44:25;;;;;;;6.47;2.20;;;26.90;1.00;;;;;;5053495;28;20254;-74
2022/08/10 10:47:04;;;;;;;2.10;1.98;;;27.10;1.00;;;;;;5052144;28;20650;-74
2022/08/10 10:49:46;;;;;;;4.72;2.10;;;27.30;1.00;;;;;;5053601;28;20234;-74
2022/08/10 10:52:25;;;;;;;2.47;2.22;;;27.20;1.00;;;;;;5053034;28;20544;-69
2022/08/10 10:55:03;;;;;;;3.22;1.98;;;27.50;1.00;;;;;;5047041;28;20207;-74
2022/08/10 10:57:39;;;;;;;3.72;2.22;;;27.40;1.00;;;;;;5032921;28;20199;-69
2022/08/10 11:00:08;;;;;;;2.70;2.00;;;27.20;1.00;;;;;;5032590;28;20246;-68
2022/08/10 11:03:07;;;;;;;2.13;1.92;;;27.30;1.00;;;;;;5033231;28;20579;-68
2022/08/10 11:05:42;;;;;;;3.50;2.03;;;27.30;1.00;;;;;;5032846;28;20270;-68
2022/08/10 11:08:15;;;;;;;2.20;2.00;;;27.20;1.00;;;;;;5032476;28;20203;-70
2022/08/10 11:10:46;;;;;;;3.50;1.92;;;27.00;1.00;;;;;;5032804;28;20261;-74
2022/08/10 11:13:25;;;;;;;1.98;1.83;;;27.20;1.00;;;;;;5032701;28;20204;-74
2022/08/10 11:16:01;;;;;;;2.25;2.05;;;27.30;1.00;;;;;;5032945;28;20654;-69
2022/08/10 11:18:38;;;;;;;3.45;2.25;;;27.50;1.00;;;;;;5032729;28;20265;-68
2022/08/10 11:21:16;;;;;;;3.90;2.40;;;27.20;1.00;;;;;;5032687;28;20647;-69
2022/08/10 11:23:52;;;;;;;2.40;2.20;;;27.20;1.00;;;;;;5032735;28;20195;-69
2022/08/10 11:26:28;;;;;;;3.10;2.30;;;27.20;1.00;;;;;;5032990;28;20215;-74
2022/08/10 11:29:06;;;;;;;3.13;2.00;;;27.70;1.00;;;;;;5032357;28;20256;-74
2022/08/10 11:31:37;;;;;;;5.82;2.28;;;27.80;1.00;;;;;;5032267;28;20199;-74
2022/08/10 11:34:14;;;;;;;3.40;2.03;;;27.80;1.00;;;;;;5032404;28;20618;-74
2022/08/10 11:36:46;;;;;;;2.65;1.90;;;27.70;1.00;;;;;;5031394;28;20234;-68
2022/08/10 11:39:19;;;;;;;3.05;2.05;;;27.60;1.00;;;;;;5032359;28;20208;-68
2022/08/10 11:41:53;;;;;;;2.13;1.90;;;27.80;1.00;;;;;;5032226;28;20203;-68
2022/08/10 11:44:28;;;;;;;2.65;2.05;;;27.50;1.00;;;;;;5032428;28;20580;-73
2022/08/10 11:47:01;;;;;;;3.05;1.77;;;27.70;1.00;;;;;;5032897;28;20600;-71
2022/08/10 11:49:35;;;;;;;3.03;1.95;;;27.70;1.00;;;;;;5032168;28;20620;-74
2022/08/10 11:52:09;;;;;;;2.28;2.00;;;27.70;1.00;;;;;;5045151;28;20239;-69
2022/08/10 11:54:42;;;;;;;3.08;2.13;;;27.50;1.00;;;;;;5052035;28;20649;-69
2022/08/10 11:57:10;;;;;;;3.63;2.55;;;28.00;1.00;;;;;;5052060;28;20207;-67
2022/08/10 11:59:57;;;;;;;2.90;2.05;;;27.90;1.00;;;;;;5051774;28;20203;-67
2022/08/10 12:02:27;;;;;;;3.30;2.28;;;28.00;1.00;;;;;;5052090;28;20248;-70
2022/08/10 12:04:59;;;;;;;2.15;1.95;;;28.00;1.00;;;;;;5048128;28;20223;-67
2022/08/10 12:07:28;;;;;;;5.43;2.45;;;27.80;1.00;;;;;;5051123;28;20244;-70
2022/08/10 12:09:56;;;;;;;2.17;2.00;;;28.00;1.00;;;;;;5051473;28;20241;-74
2022/08/10 12:12:24;;;;;;;2.10;2.00;;;28.00;1.00;;;;;;5051880;28;20257;-68
2022/08/10 12:14:59;;;;;;;3.17;2.10;;;28.00;1.00;;;;;;5051670;28;20256;-67
2022/08/10 12:17:32;;;;;;;2.08;1.80;;;28.20;1.00;;;;;;5051678;28;20194;-70
2022/08/10 12:20:06;;;;;;;1.90;1.80;;;28.20;1.00;;;;;;5042880;28;20203;-70
2022/08/10 12:22:41;;;;;;;5.13;2.45;;;28.30;1.00;;;;;;5031902;28;20210;-71
2022/08/10 12:25:14;;;;;;;2.38;1.60;;;28.10;1.00;;;;;;5031570;28;20215;-74
2022/08/10 12:27:46;;;;;;;2.35;2.13;;;28.10;1.00;;;;;;5032004;28;20207;-67
2022/08/10 12:30:17;;;;;;;2.85;1.90;;;28.70;1.00;;;;;;5031494;28;20241;-67
2022/08/10 12:32:51;;;;;;;2.13;2.03;;;28.60;1.00;;;;;;5031676;28;20273;-71
2022/08/10 12:35:25;;;;;;;2.17;1.95;;;28.40;1.00;;;;;;5031735;28;20207;-74
2022/08/10 12:38:03;;;;;;;4.30;2.65;;;28.60;1.00;;;;;;5044854;28;20203;-69
2022/08/10 12:40:36;;;;;;;5.90;2.33;;;28.90;1.00;;;;;;5037340;28;20199;-69
2022/08/10 12:43:09;;;;;;;2.33;1.83;;;28.30;1.00;;;;;;5052185;28;20286;-74
2022/08/10 12:45:39;;;;;;;2.67;2.05;;;28.10;1.00;;;;;;5051774;28;20298;-75
2022/08/10 12:48:16;;;;;;;2.63;2.05;;;28.10;1.00;;;;;;5052000;28;20237;-74
2022/08/10 12:50:49;;;;;;;3.63;2.22;;;27.80;1.00;;;;;;5049295;28;20203;-74
2022/08/10 12:53:32;;;;;;;1.98;1.88;;;27.80;1.00;;;;;;5051854;28;20245;-75
2022/08/10 12:56:00;;;;;;;4.18;2.20;;;28.30;1.00;;;;;;5041250;28;20660;-69
2022/08/10 12:58:29;;;;;;;2.75;1.77;;;28.00;1.00;;;;;;5051824;28;20202;-69
2022/08/10 13:00:58;;;;;;;2.88;1.98;;;28.30;1.00;;;;;;5051205;28;20207;-69
2022/08/10 13:03:28;;;;;;;3.22;2.00;;;28.60;1.00;;;;;;5051247;28;20252;-70
2022/08/10 13:05:58;;;;;;;3.78;2.10;;;28.60;1.00;;;;;;5040911;28;20381;-74
2022/08/10 13:11:12;;;;;;;2.22;1.77;;;28.60;1.00;;;;;;5040775;28;20763;-69
2022/08/10 13:13:45;;;;;;;2.88;2.03;;;28.70;1.00;;;;;;5045794;28;20272;-75